Aviation Digital Data Service (ADDS)

Output produced by METARs form (0325 UTC 21 September 2017)
found at http://www.aviationweather.gov/adds/metars/
 
TAF MPPA 202300Z 2100/2206 00000KT 9999 SCT018 
     TEMPO 2114/2117 34004KT 
     TEMPO 2117/2121 19004KT 
     PROB30 
     TEMPO 2121/2201 19009KT 6000 -TSRA SCT015CB BKN090 
     TEMPO 2201/2204 34005KT
       
TAF MPDA 202300Z 2100/2112 00000KT 9999 SCT018 SCT090 
     TEMPO 2100/2104 21005KT 7000 -TSRA SCT015CB BKN090 
     BECMG 2104/2106 NSW
       
TAF MPMG 202300Z 2100/2112 32004KT 9999 SCT018 SCT090
       
TAF MPTO 202300Z 2100/2206 00000KT 9999 SCT018 
     TEMPO 2116/2120 18004KT 
     PROB30 
     TEMPO 2121/2201 18009KT 6000 -TSRA SCT015CB BKN090 
     TEMPO 2201/2205 31004KT